Time;durP1;ratioP1;P1;durP2;ratioP2;P2;SDS_P1;SDS_P2;PMS_P1;PMS_P2;Temp;Humidity;BMP_temperature;BMP_pressure;BME280_temperature;BME280_humidity;BME280_pressure;Samples;Min_cycle;Max_cycle;Signal;HPM_P1;HPM_P2
2022/02/04 00:06:43;;;;;;;5.53;3.95;;;;;;;6.24;96.34;98620.88;5011546;28;20053;-75
2022/02/04 00:22:56;;;;;;;9.00;5.15;;;;;;;6.43;97.50;98672.44;5013391;28;20040;-75
2022/02/04 00:25:40;;;;;;;10.93;5.38;;;;;;;6.43;97.12;98678.66;5008795;28;20061;-75
2022/02/04 00:28:12;;;;;;;8.70;4.65;;;;;;;6.34;97.21;98677.03;5000407;28;20022;-75
2022/02/04 00:30:43;;;;;;;9.25;5.30;;;;;;;6.22;97.65;98663.19;5006056;28;20026;-75
2022/02/04 00:33:11;;;;;;;9.88;5.47;;;;;;;6.32;97.32;98674.53;5008534;28;20029;-76
2022/02/04 00:38:07;;;;;;;9.35;4.80;;;;;;;6.25;97.76;98676.25;5014344;28;20028;-76
2022/02/04 00:40:38;;;;;;;8.73;4.70;;;;;;;6.25;97.94;98686.19;5015187;28;20025;-75
2022/02/04 00:43:07;;;;;;;8.68;4.68;;;;;;;6.22;97.42;98682.00;5011894;28;20105;-76
2022/02/04 00:45:46;;;;;;;;;;;;;;;6.18;97.49;98667.22;5000147;28;20022;-76
2022/02/04 00:48:36;;;;;;;8.07;4.18;;;;;;;5.88;97.86;98625.97;5001364;28;19978;-76
2022/02/04 01:28:28;;;;;;;7.32;3.60;;;;;;;5.76;100.00;98700.69;5029156;28;20029;-75
2022/02/04 01:30:55;;;;;;;7.28;3.80;;;;;;;5.69;100.00;98694.34;5031909;28;20029;-76
2022/02/04 01:33:20;;;;;;;6.32;3.70;;;;;;;5.57;100.00;98674.28;5031654;28;20021;-75
2022/02/04 01:35:46;;;;;;;6.05;3.70;;;;;;;5.58;100.00;98674.13;5002768;28;20045;-76
2022/02/04 01:38:11;;;;;;;9.00;4.18;;;;;;;5.59;100.00;98683.00;5003059;28;20045;-76
2022/02/04 01:40:37;;;;;;;6.85;3.78;;;;;;;5.50;100.00;98671.44;5007276;28;20079;-77
2022/02/04 01:43:03;;;;;;;8.18;3.95;;;;;;;5.34;100.00;98653.56;5013773;28;20112;-76
2022/02/04 01:45:28;;;;;;;8.93;4.03;;;;;;;5.50;100.00;98679.47;5013038;28;20044;-77
2022/02/04 01:47:57;;;;;;;8.23;3.85;;;;;;;5.53;100.00;98683.66;5010786;28;20021;-77
2022/02/04 01:50:28;;;;;;;9.23;4.20;;;;;;;5.54;100.00;98688.88;5009386;28;20038;-77
2022/02/04 01:52:58;;;;;;;9.10;4.35;;;;;;;5.34;100.00;98664.28;5010048;28;20058;-76
2022/02/04 01:55:24;;;;;;;7.53;3.67;;;;;;;5.44;100.00;98691.75;5011568;28;20045;-77
2022/02/04 01:57:50;;;;;;;9.93;4.70;;;;;;;5.19;100.00;98676.78;5011086;28;20037;-77
2022/02/04 02:00:16;;;;;;;11.13;5.30;;;;;;;5.26;100.00;98691.16;5012712;28;20135;-77
2022/02/04 02:02:42;;;;;;;10.23;5.00;;;;;;;5.08;100.00;98656.50;5031032;28;20017;-75
2022/02/04 02:05:08;;;;;;;10.20;4.80;;;;;;;5.24;100.00;98669.03;5029574;28;20044;-75
2022/02/04 02:07:41;;;;;;;11.13;4.60;;;;;;;5.33;100.00;98683.25;5002929;28;20452;-76
2022/02/04 02:10:11;;;;;;;10.18;4.80;;;;;;;5.39;100.00;98693.28;5017202;28;20054;-75
2022/02/04 02:43:10;;;;;;;8.73;4.70;;;;;;;5.27;100.00;98696.34;4966094;28;20035;-73
2022/02/04 02:50:41;;;;;;;8.32;4.85;;;;;;;5.15;100.00;98672.75;5001631;28;20030;-73
2022/02/04 02:58:07;;;;;;;7.78;4.85;;;;;;;5.09;100.00;98679.63;5012460;28;20439;-74
2022/02/04 03:03:06;;;;;;;8.60;4.25;;;;;;;5.19;100.00;98682.97;5015513;28;20026;-73
2022/02/04 03:05:31;;;;;;;6.53;4.20;;;;;;;5.15;100.00;98689.66;5007954;28;20031;-74
2022/02/04 03:07:56;;;;;;;7.40;4.10;;;;;;;4.86;100.00;98638.47;5023155;28;20027;-74
2022/02/04 03:10:22;;;;;;;8.18;4.85;;;;;;;5.22;100.00;98701.38;5031768;28;20392;-76
2022/02/04 03:12:48;;;;;;;7.28;3.55;;;;;;;5.02;100.00;98666.06;5015582;28;20588;-75
2022/02/04 03:15:14;;;;;;;6.97;3.80;;;;;;;4.95;100.00;98654.38;5001050;28;20690;-74
2022/02/04 03:17:41;;;;;;;5.82;3.70;;;;;;;5.21;100.00;98693.50;5002615;28;20113;-74
2022/02/04 03:20:10;;;;;;;5.85;3.83;;;;;;;5.04;100.00;98653.31;5019043;28;20033;-74
2022/02/04 03:22:36;;;;;;;9.23;4.05;;;;;;;4.94;100.00;98647.31;4994809;28;20512;-77
2022/02/04 03:25:05;;;;;;;9.20;3.65;;;;;;;5.21;100.00;98694.38;5007976;28;20046;-74
2022/02/04 03:27:40;;;;;;;8.07;3.92;;;;;;;5.09;100.00;98676.13;5014065;28;20033;-74
2022/02/04 03:30:15;;;;;;;8.13;3.92;;;;;;;5.07;100.00;98694.22;5014923;28;20029;-74
2022/02/04 03:32:47;;;;;;;8.98;4.50;;;;;;;4.90;100.00;98672.81;5014229;28;20045;-75
2022/02/04 03:35:18;;;;;;;6.35;3.83;;;;;;;4.79;100.00;98662.41;5001992;28;20130;-77
2022/02/04 03:37:43;;;;;;;13.10;4.93;;;;;;;4.98;100.00;98707.66;5003203;28;20018;-75
2022/02/04 03:40:09;;;;;;;7.80;4.88;;;;;;;4.74;100.00;98667.44;5006183;28;20033;-75
2022/02/04 03:42:35;;;;;;;7.03;4.38;;;;;;;4.80;100.00;98683.72;5015039;28;20029;-75
2022/02/04 03:45:00;;;;;;;9.38;4.38;;;;;;;4.84;100.00;98698.44;5015199;28;20030;-74
2022/02/04 03:47:25;;;;;;;8.18;4.88;;;;;;;4.67;100.00;98677.19;5009298;28;20026;-74
2022/02/04 03:49:51;;;;;;;9.77;5.00;;;;;;;4.83;100.00;98703.97;5013586;28;20026;-74
2022/02/04 03:52:16;;;;;;;10.25;4.80;;;;;;;4.63;100.00;98662.44;5014780;28;20667;-74
2022/02/04 03:54:41;;;;;;;8.38;5.40;;;;;;;4.89;100.00;98723.91;5012174;28;20022;-75
2022/02/04 03:57:07;;;;;;;8.77;5.43;;;;;;;4.82;100.00;98696.91;5009766;28;20079;-76
2022/02/04 03:59:32;;;;;;;11.02;5.90;;;;;;;4.89;100.00;98716.69;5013732;28;20018;-75
2022/02/04 04:01:57;;;;;;;10.50;5.55;;;;;;;4.64;100.00;98690.91;5013793;28;20101;-74
2022/02/04 04:04:28;;;;;;;11.75;5.78;;;;;;;4.51;100.00;98670.84;5011941;28;20041;-75
2022/02/04 04:06:54;;;;;;;10.60;5.10;;;;;;;4.68;100.00;98689.56;5006076;28;20033;-76
2022/02/04 04:09:19;;;;;;;12.88;5.53;;;;;;;4.64;100.00;98685.53;5006488;28;20394;-76
2022/02/04 04:11:47;;;;;;;12.35;5.60;;;;;;;4.70;100.00;98698.28;5009319;28;20018;-75
2022/02/04 04:14:14;;;;;;;9.52;5.05;;;;;;;4.65;100.00;98687.25;5007656;28;20088;-73
2022/02/04 04:16:41;;;;;;;9.07;5.70;;;;;;;4.60;100.00;98667.13;5012994;28;20026;-76
2022/02/04 04:19:06;;;;;;;10.93;4.90;;;;;;;4.80;100.00;98720.41;5012162;28;20033;-74
2022/02/04 04:21:31;;;;;;;9.43;5.53;;;;;;;4.68;100.00;98681.53;5014942;28;20022;-74
2022/02/04 04:23:58;;;;;;;8.80;5.47;;;;;;;4.83;100.00;98710.16;5016893;28;20458;-74
2022/02/04 04:26:23;;;;;;;8.90;5.43;;;;;;;4.75;100.00;98699.47;5012933;28;20018;-74
2022/02/04 04:28:48;;;;;;;10.25;6.15;;;;;;;4.75;100.00;98704.81;5011423;28;20032;-74
2022/02/04 04:31:15;;;;;;;11.52;5.80;;;;;;;4.79;100.00;98718.69;5012652;28;20033;-73
2022/02/04 04:33:41;;;;;;;9.07;5.43;;;;;;;4.74;100.00;98710.34;5013935;28;20494;-75
2022/02/04 04:36:07;;;;;;;12.15;6.28;;;;;;;4.76;100.00;98714.53;5014783;28;20034;-74
2022/02/04 04:38:44;;;;;;;11.60;6.32;;;;;;;4.64;100.00;98704.31;5008770;28;20033;-74
2022/02/04 04:41:30;;;;;;;11.43;6.28;;;;;;;4.72;100.00;98707.84;5009122;28;20175;-76
2022/02/04 05:29:53;;;;;;;6.32;4.05;;;;;;;4.96;100.00;98749.03;5002787;28;20029;-73
2022/02/04 05:32:18;;;;;;;8.32;4.25;;;;;;;4.78;100.00;98733.97;5003706;28;20042;-75
2022/02/04 05:34:45;;;;;;;8.40;4.13;;;;;;;4.61;100.00;98714.38;5004432;28;20025;-74
2022/02/04 05:37:13;;;;;;;6.97;4.40;;;;;;;4.81;100.00;98738.16;5004979;28;20534;-75
2022/02/04 05:39:56;;;;;;;8.88;4.68;;;;;;;4.58;100.00;98722.75;5012642;28;20034;-73
2022/02/04 05:42:27;;;;;;;8.32;5.07;;;;;;;4.73;100.00;98747.03;5002700;28;20029;-74
2022/02/04 05:44:58;;;;;;;9.18;4.72;;;;;;;4.78;100.00;98752.72;5003961;28;20036;-69
2022/02/04 05:47:24;;;;;;;7.85;3.90;;;;;;;4.79;100.00;98742.81;5002543;28;20026;-72
2022/02/04 05:50:08;;;;;;;6.97;4.10;;;;;;;4.68;100.00;98721.72;5011921;28;20026;-79
2022/02/04 05:52:51;;;;;;;6.32;3.85;;;;;;;4.68;100.00;98732.44;5005100;28;20045;-86
2022/02/04 05:55:34;;;;;;;7.50;4.28;;;;;;;4.66;100.00;98727.25;5007927;28;20060;-76
2022/02/04 05:58:17;;;;;;;9.35;4.88;;;;;;;4.50;100.00;98705.81;5008287;28;20028;-79
2022/02/04 06:03:37;;;;;;;5.85;3.92;;;;;;;4.59;100.00;98732.47;4999246;28;20031;-76
2022/02/04 06:07:08;;;;;;;8.15;4.65;;;;;;;4.67;100.00;98745.03;5012799;28;20056;-76
2022/02/04 06:22:21;;;;;;;8.90;5.32;;;;;;;4.66;100.00;98742.50;5002991;28;20501;-73
2022/02/04 06:24:48;;;;;;;8.40;5.25;;;;;;;4.75;100.00;98758.41;4998657;28;20037;-70
2022/02/04 06:27:14;;;;;;;8.98;5.18;;;;;;;4.67;100.00;98742.34;5001627;28;20034;-70
2022/02/04 06:29:40;;;;;;;7.22;4.68;;;;;;;4.73;100.00;98743.50;4999713;28;20034;-70
2022/02/04 06:32:05;;;;;;;10.05;5.07;;;;;;;4.67;100.00;98746.88;5004981;28;20479;-70
2022/02/04 06:34:31;;;;;;;10.05;5.30;;;;;;;4.78;100.00;98759.94;4997910;28;20037;-71
2022/02/04 06:36:56;;;;;;;7.63;5.45;;;;;;;4.79;100.00;98757.09;5000876;28;20029;-71
2022/02/04 06:39:21;;;;;;;9.73;5.97;;;;;;;4.66;100.00;98745.19;5001974;28;20044;-78
2022/02/04 06:41:47;;;;;;;12.45;6.20;;;;;;;4.69;100.00;98748.38;5008637;28;20021;-73
2022/02/04 06:44:12;;;;;;;10.75;6.38;;;;;;;4.77;100.00;98764.47;5012625;28;20556;-77
2022/02/04 06:46:38;;;;;;;16.00;7.80;;;;;;;4.66;100.00;98743.31;5012182;28;20032;-79
2022/02/04 06:49:04;;;;;;;13.82;7.38;;;;;;;4.69;100.00;98734.13;5010760;28;20022;-77
2022/02/04 06:51:29;;;;;;;13.68;8.00;;;;;;;4.64;100.00;98725.75;5027497;28;20025;-71
2022/02/04 06:53:54;;;;;;;18.08;8.55;;;;;;;4.77;100.00;98739.50;5020871;28;20039;-71
2022/02/04 06:56:20;;;;;;;19.85;10.05;;;;;;;4.61;100.00;98738.50;5016509;28;20037;-71
2022/02/04 06:58:45;;;;;;;21.75;9.48;;;;;;;4.57;100.00;98731.78;5004657;28;20029;-71
2022/02/04 07:01:10;;;;;;;16.75;8.80;;;;;;;4.52;100.00;98727.94;5022087;28;20407;-71
2022/02/04 07:03:35;;;;;;;16.50;8.07;;;;;;;4.57;100.00;98750.53;5006579;28;20114;-71
2022/02/04 07:06:02;;;;;;;13.70;7.53;;;;;;;4.59;100.00;98739.66;4999001;28;20029;-71
2022/02/04 07:08:35;;;;;;;14.63;7.50;;;;;;;4.61;100.00;98743.00;5005454;28;20025;-71
2022/02/04 07:11:43;;;;;;;12.30;6.80;;;;;;;4.74;100.00;98764.78;5003536;28;20096;-69
2022/02/04 07:16:41;;;;;;;12.07;7.13;;;;;;;4.76;100.00;98746.69;4988197;28;20036;-72
2022/02/04 07:21:51;;;;;;;13.50;7.45;;;;;;;4.95;100.00;98740.16;5008496;28;20110;-72
2022/02/04 07:24:17;;;;;;;16.40;8.65;;;;;;;5.21;100.00;98779.31;4993585;28;20030;-71
2022/02/04 07:26:42;;;;;;;11.15;6.88;;;;;;;5.29;100.00;98752.50;5004216;28;20101;-73
2022/02/04 07:29:07;;;;;;;8.45;5.43;;;;;;;5.39;100.00;98749.63;5006212;28;20021;-74
2022/02/04 07:31:37;;;;;;;10.13;5.25;;;;;;;5.82;100.00;98768.97;4991007;28;20117;-72
2022/02/04 07:41:47;;;;;;;4.88;2.78;;;;;;;9.58;80.99;98767.44;5008143;28;20014;-79
2022/02/04 07:44:13;;;;;;;9.45;3.20;;;;;;;8.19;87.12;98761.56;4999930;28;20053;-77
2022/02/04 07:46:39;;;;;;;6.50;2.92;;;;;;;7.19;94.48;98753.97;5014499;28;20064;-75
2022/02/04 07:49:06;;;;;;;6.35;2.70;;;;;;;6.56;97.90;98770.25;5015880;28;20050;-73
2022/02/04 07:51:31;;;;;;;4.82;3.05;;;;;;;6.21;100.00;98735.88;5009958;28;20014;-74
2022/02/04 07:53:57;;;;;;;6.13;3.08;;;;;;;5.99;100.00;98743.72;5006568;28;20030;-73
2022/02/04 07:56:23;;;;;;;4.85;2.83;;;;;;;6.06;100.00;98755.44;5004112;28;20022;-73
2022/02/04 07:58:57;;;;;;;6.22;3.35;;;;;;;6.05;100.00;98747.56;5010560;28;20022;-73
2022/02/04 08:01:28;;;;;;;6.78;3.10;;;;;;;6.18;100.00;98773.84;5006132;28;20029;-72
2022/02/04 08:04:01;;;;;;;6.63;3.67;;;;;;;6.01;100.00;98751.63;5001818;28;20092;-74
2022/02/04 08:06:28;;;;;;;4.40;2.70;;;;;;;5.89;100.00;98751.13;5010209;28;20556;-75
2022/02/04 08:11:26;;;;;;;3.92;2.25;;;;;;;5.90;100.00;98752.81;5011572;28;20025;-77
2022/02/04 08:14:17;;;;;;;4.32;2.50;;;;;;;6.03;100.00;98768.41;5002252;28;20028;-70
2022/02/04 08:33:30;;;;;;;3.40;2.10;;;;;;;7.77;90.31;98767.66;4970574;28;20038;-72
2022/02/04 08:49:31;;;;;;;3.97;2.33;;;;;;;6.43;100.00;98769.19;4972313;28;20062;-70
2022/02/04 08:57:12;;;;;;;11.32;4.22;;;;;;;5.83;100.00;98766.09;5013946;28;20415;-75
2022/02/04 09:02:12;;;;;;;5.90;4.13;;;;;;;5.88;100.00;98779.84;5004896;28;20037;-81
2022/02/04 09:04:44;;;;;;;7.30;2.97;;;;;;;5.54;100.00;98760.50;4995858;28;20679;-74
2022/02/04 09:07:12;;;;;;;7.05;3.40;;;;;;;5.65;100.00;98758.25;5012138;28;20452;-77
2022/02/04 09:09:50;;;;;;;8.43;3.45;;;;;;;5.69;100.00;98780.25;5013267;28;20032;-74
2022/02/04 09:18:03;;;;;;;5.97;2.95;;;;;;;5.53;100.00;98767.72;5003044;28;20447;-75
2022/02/04 09:22:50;;;;;;;3.85;2.00;;;;;;;4.96;100.00;98639.13;5015664;28;20040;-76
2022/02/04 09:25:16;;;;;;;3.33;2.05;;;;;;;6.10;100.00;98775.59;4997555;28;20080;-71
2022/02/04 09:27:42;;;;;;;3.78;1.75;;;;;;;6.39;100.00;98754.41;5006962;28;20022;-72
2022/02/04 09:30:11;;;;;;;3.05;1.50;;;;;;;7.50;98.72;98769.13;5004883;28;20080;-77
2022/02/04 09:32:36;;;;;;;3.25;1.70;;;;;;;7.74;93.86;98760.78;5014950;28;20049;-75
2022/02/04 09:35:23;;;;;;;2.72;1.30;;;;;;;7.71;94.03;98750.38;5015549;28;20029;-78
2022/02/04 09:37:50;;;;;;;4.20;1.17;;;;;;;7.75;91.79;98753.53;5004201;28;20018;-75
2022/02/04 09:40:17;;;;;;;1.88;1.25;;;;;;;7.81;91.67;98750.09;5010445;28;20488;-71
2022/02/04 09:42:44;;;;;;;2.10;1.30;;;;;;;7.58;90.67;98745.66;5008836;28;20032;-76
2022/02/04 09:45:12;;;;;;;3.65;1.95;;;;;;;7.37;94.00;98692.53;5008242;28;20395;-73
2022/02/04 09:47:43;;;;;;;4.85;1.98;;;;;;;7.56;93.48;98739.59;5001498;28;20032;-75
2022/02/04 09:50:15;;;;;;;4.50;2.28;;;;;;;7.18;93.65;98696.63;5008626;28;20026;-72
2022/02/04 10:07:15;;;;;;;2.35;1.42;;;;;;;6.96;96.42;98749.44;5003854;28;20052;-70
2022/02/04 10:16:15;;;;;;;2.63;1.85;;;;;;;6.82;98.91;98733.28;5012409;28;20033;-76
2022/02/04 10:18:33;;;;;;;2.75;1.30;;;;;;;6.91;100.00;98748.31;5007142;28;20152;-73
2022/02/04 10:21:09;;;;;;;2.03;1.38;;;;;;;7.24;97.11;98741.63;5007464;28;20104;-75
2022/02/04 10:23:49;;;;;;;3.40;1.42;;;;;;;7.10;94.46;98744.28;5020624;28;20018;-80
2022/02/04 10:26:14;;;;;;;3.72;1.30;;;;;;;7.43;93.75;98734.03;5008105;28;20037;-76
2022/02/04 10:28:41;;;;;;;2.60;1.20;;;;;;;7.84;92.12;98729.00;5012349;28;20021;-80
2022/02/04 10:31:15;;;;;;;1.42;0.80;;;;;;;8.07;88.20;98722.66;5005301;28;20025;-78
2022/02/04 10:34:23;;;;;;;4.25;1.35;;;;;;;7.98;89.29;98721.91;5002233;28;20042;-76
2022/02/04 10:39:31;;;;;;;3.60;1.00;;;;;;;8.22;87.61;98719.91;4998425;28;20345;-69
2022/02/04 10:42:30;;;;;;;1.33;0.70;;;;;;;7.97;88.23;98720.25;5017897;28;20029;-79
2022/02/04 10:46:03;;;;;;;1.42;0.82;;;;;;;7.75;88.51;98692.41;4999991;28;20037;-85
2022/02/04 10:53:30;;;;;;;4.20;1.00;;;;;;;7.41;89.43;98687.63;4998391;28;20071;-80
2022/02/04 11:01:14;;;;;;;2.55;0.90;;;;;;;8.21;87.19;98685.91;5013761;28;20438;-78
2022/02/04 11:03:48;;;;;;;1.23;0.65;;;;;;;8.58;83.28;98697.50;5005233;28;20026;-77
2022/02/04 11:34:58;;;;;;;0.15;0.15;;;;;;;8.52;77.22;98656.81;5001429;28;20022;-70
2022/02/04 11:48:44;;;;;;;1.02;0.40;;;;;;;10.39;70.41;98641.59;4997552;28;20037;-70
2022/02/04 11:56:58;;;;;;;0.45;0.38;;;;;;;11.93;64.02;98624.88;4997774;28;20084;-69
2022/02/04 11:59:35;;;;;;;1.30;0.45;;;;;;;10.84;64.42;98612.03;5005658;28;20128;-69
2022/02/04 12:02:21;;;;;;;1.15;0.30;;;;;;;10.64;65.25;98596.66;5000526;28;20096;-73
2022/02/04 12:04:47;;;;;;;1.10;0.60;;;;;;;11.16;65.12;98611.16;5007768;28;20407;-72
2022/02/04 12:07:35;;;;;;;0.90;0.50;;;;;;;13.25;58.34;98586.03;5004308;28;20030;-72
2022/02/04 12:10:01;;;;;;;0.85;0.40;;;;;;;14.53;53.59;98578.69;5000559;28;20436;-74
2022/02/04 12:15:26;;;;;;;1.85;0.70;;;;;;;14.59;53.21;98575.88;5010286;28;20044;-70
2022/02/04 12:17:51;;;;;;;1.38;0.40;;;;;;;12.82;55.42;98590.44;5011613;28;20026;-71
2022/02/04 12:20:16;;;;;;;0.88;0.40;;;;;;;10.30;62.12;98566.06;4991768;28;20030;-71
2022/02/04 12:22:50;;;;;;;0.50;0.30;;;;;;;10.78;63.65;98586.66;5000051;28;20041;-72
2022/02/04 12:25:53;;;;;;;1.13;0.70;;;;;;;12.08;59.32;98575.78;5006346;28;20123;-76
2022/02/04 12:28:40;;;;;;;0.80;0.60;;;;;;;10.89;63.24;98567.06;4997301;28;20105;-71
2022/02/04 12:31:14;;;;;;;2.28;0.60;;;;;;;10.00;67.27;98573.69;4994159;28;20033;-71
2022/02/04 12:34:05;;;;;;;0.90;0.75;;;;;;;9.49;68.73;98560.69;4998902;28;20026;-70
2022/02/04 12:36:36;;;;;;;0.93;0.55;;;;;;;9.18;69.38;98569.28;5010695;28;20551;-71
2022/02/04 12:39:07;;;;;;;0.77;0.43;;;;;;;9.43;68.43;98538.03;5007777;28;20044;-72
2022/02/04 12:41:42;;;;;;;0.68;0.30;;;;;;;9.24;68.89;98557.66;5000325;28;20021;-76
2022/02/04 12:44:28;;;;;;;0.60;0.40;;;;;;;8.87;71.75;98540.88;5007827;28;20072;-70
2022/02/04 12:47:01;;;;;;;0.60;0.32;;;;;;;8.75;72.30;98566.72;5008521;28;20026;-68
2022/02/04 12:49:31;;;;;;;1.45;0.30;;;;;;;8.70;74.10;98556.56;5006494;28;20108;-72
2022/02/04 12:52:20;;;;;;;0.38;0.20;;;;;;;8.62;70.49;98564.81;5002006;28;20033;-72
2022/02/04 12:54:52;;;;;;;0.52;0.35;;;;;;;8.67;68.50;98548.88;5007938;28;20099;-72
2022/02/04 12:57:33;;;;;;;0.55;0.20;;;;;;;8.47;68.87;98559.50;5007945;28;20465;-72
2022/02/04 13:10:33;;;;;;;0.98;0.65;;;;;;;8.07;70.78;98497.16;5003218;28;20034;-72
2022/02/04 13:13:03;;;;;;;2.70;0.80;;;;;;;8.17;68.66;98522.94;5001970;28;20026;-72
2022/02/04 13:15:34;;;;;;;1.08;0.30;;;;;;;7.99;69.82;98532.34;5010231;28;20041;-72
2022/02/04 13:18:08;;;;;;;1.50;0.40;;;;;;;7.86;71.05;98522.28;5017151;28;20022;-72
2022/02/04 13:20:35;;;;;;;1.50;0.50;;;;;;;7.88;70.58;98530.13;5009373;28;20024;-72
2022/02/04 13:23:06;;;;;;;1.15;0.40;;;;;;;7.59;70.60;98478.06;5016053;28;20081;-72
2022/02/04 13:25:33;;;;;;;0.32;0.30;;;;;;;7.86;71.29;98533.03;5019765;28;20029;-73
2022/02/04 13:28:14;;;;;;;0.90;0.40;;;;;;;7.59;73.14;98523.84;5009772;28;20026;-72
2022/02/04 13:31:11;;;;;;;1.10;0.47;;;;;;;7.74;74.64;98512.19;5032599;28;20038;-72
2022/02/04 13:33:43;;;;;;;2.90;0.30;;;;;;;7.72;75.78;98508.84;5009106;28;20104;-72
2022/02/04 13:36:36;;;;;;;1.20;0.50;;;;;;;7.69;76.67;98516.28;5010544;28;20173;-72
2022/02/04 13:44:27;;;;;;;2.55;0.90;;;;;;;7.44;78.17;98506.91;5004258;28;20079;-73
2022/02/04 13:47:12;;;;;;;0.80;0.60;;;;;;;7.54;78.07;98483.19;5022716;28;20121;-72
2022/02/04 13:57:51;;;;;;;0.73;0.60;;;;;;;7.42;77.69;98482.06;5007515;28;20036;-72
2022/02/04 14:02:52;;;;;;;0.95;0.68;;;;;;;7.12;77.77;98478.59;5002683;28;20036;-72
2022/02/04 14:05:31;;;;;;;2.35;0.65;;;;;;;7.21;78.62;98501.69;5002973;28;20041;-72
2022/02/04 14:08:05;;;;;;;1.77;0.80;;;;;;;7.01;79.19;98472.69;4999627;28;20100;-72
2022/02/04 14:10:34;;;;;;;0.88;0.60;;;;;;;7.15;79.24;98495.22;5003662;28;20036;-72
2022/02/04 14:13:02;;;;;;;;;;;;;;;7.31;78.95;98498.69;5008687;28;20029;-72
2022/02/04 14:15:33;;;;;;;1.10;0.60;;;;;;;7.35;77.03;98491.91;4994588;28;19914;-72
2022/02/04 14:18:06;;;;;;;1.13;0.70;;;;;;;7.07;78.19;98478.34;5002992;28;20021;-72
2022/02/04 14:20:32;;;;;;;1.08;0.75;;;;;;;7.16;78.38;98487.97;5003579;28;20041;-72
2022/02/04 14:22:58;;;;;;;1.20;0.60;;;;;;;6.76;77.85;98442.63;4997059;28;20025;-72
2022/02/04 14:25:23;;;;;;;1.50;0.80;;;;;;;7.12;77.79;98494.75;4994570;28;20124;-72
2022/02/04 14:27:54;;;;;;;1.17;0.52;;;;;;;6.95;78.35;98469.94;5008843;28;20032;-72
2022/02/04 14:30:24;;;;;;;0.88;0.50;;;;;;;6.88;78.92;98459.09;4996756;28;20041;-74
2022/02/04 14:33:04;;;;;;;1.15;0.70;;;;;;;7.11;78.29;98502.00;5003213;28;20468;-76
2022/02/04 14:35:44;;;;;;;6.22;1.88;;;;;;;6.96;77.52;98467.03;5004954;28;20088;-78
2022/02/04 14:58:34;;;;;;;1.45;0.75;;;;;;;7.38;73.05;98464.63;5016489;28;20018;-69
2022/02/04 15:02:23;;;;;;;1.52;0.80;;;;;;;6.90;75.55;98427.47;5011863;28;20092;-73
2022/02/04 15:04:51;;;;;;;0.88;0.60;;;;;;;6.89;76.85;98433.03;5019325;28;20113;-72
2022/02/04 15:07:17;;;;;;;4.28;1.15;;;;;;;6.78;77.18;98419.03;5019445;28;20077;-71
2022/02/04 15:09:53;;;;;;;4.18;1.38;;;;;;;6.84;77.72;98441.69;5022717;28;20030;-73
2022/02/04 15:12:19;;;;;;;1.75;1.10;;;;;;;6.89;76.69;98438.41;5018637;28;20014;-72
2022/02/04 15:14:44;;;;;;;3.25;1.38;;;;;;;6.58;75.73;98399.16;5007236;28;20788;-73
2022/02/04 15:17:09;;;;;;;5.05;1.98;;;;;;;6.64;75.76;98402.97;5006508;28;20041;-75
2022/02/04 15:19:36;;;;;;;1.25;0.80;;;;;;;6.67;73.87;98392.66;5013155;28;20080;-73
2022/02/04 15:22:06;;;;;;;1.17;0.65;;;;;;;6.80;73.66;98422.38;5009453;28;20029;-72
2022/02/04 15:24:32;;;;;;;0.40;0.40;;;;;;;6.93;74.05;98434.31;5003621;28;20026;-72
2022/02/04 15:26:58;;;;;;;0.82;0.40;;;;;;;6.90;74.04;98418.56;5006934;28;20029;-71
2022/02/04 15:29:24;;;;;;;1.33;0.70;;;;;;;6.63;74.64;98393.22;5004856;28;20030;-72
2022/02/04 15:31:54;;;;;;;1.80;0.80;;;;;;;6.59;74.56;98408.88;4998864;28;20022;-72
2022/02/04 15:34:20;;;;;;;1.98;0.70;;;;;;;6.59;75.08;98379.31;5010445;28;20026;-73
2022/02/04 15:36:48;;;;;;;1.52;0.50;;;;;;;6.86;74.66;98428.84;5008581;28;20117;-72
2022/02/04 15:39:16;;;;;;;1.38;0.73;;;;;;;6.64;74.88;98401.09;5005788;28;20030;-72
2022/02/04 15:41:42;;;;;;;1.65;0.60;;;;;;;6.79;75.38;98439.53;5009855;28;20079;-72
2022/02/04 15:50:01;;;;;;;1.73;0.70;;;;;;;6.64;75.55;98411.03;5008733;28;20038;-73
2022/02/04 15:52:48;;;;;;;1.02;0.60;;;;;;;6.72;74.97;98405.53;4994411;28;20026;-72
2022/02/04 16:05:35;;;;;;;1.90;0.60;;;;;;;6.64;75.84;98382.28;5007948;28;20550;-74
2022/02/04 16:08:00;;;;;;;9.98;1.30;;;;;;;6.64;75.68;98381.44;5002877;28;20412;-74
2022/02/04 16:10:36;;;;;;;1.73;1.02;;;;;;;6.80;75.71;98400.88;5002690;28;20061;-73
2022/02/04 16:13:24;;;;;;;3.15;1.35;;;;;;;6.55;75.75;98361.94;5000845;28;20042;-73
2022/02/04 16:15:55;;;;;;;2.55;1.35;;;;;;;6.61;76.25;98382.66;4998363;28;20044;-72
2022/02/04 16:18:25;;;;;;;2.83;0.90;;;;;;;6.57;75.86;98366.06;4996777;28;20034;-72
2022/02/04 16:21:14;;;;;;;1.80;0.77;;;;;;;6.52;76.24;98352.38;5011197;28;20038;-72
2022/02/04 16:29:01;;;;;;;2.97;1.30;;;;;;;6.40;76.90;98340.44;4985566;28;20037;-73
2022/02/04 16:31:26;;;;;;;2.83;1.40;;;;;;;6.58;76.85;98364.22;5002827;28;20038;-72
2022/02/04 16:33:52;;;;;;;1.75;0.90;;;;;;;6.49;77.18;98354.59;4999106;28;20072;-72
2022/02/04 16:36:21;;;;;;;1.83;1.02;;;;;;;6.45;77.31;98350.63;5009798;28;20432;-74
2022/02/04 16:38:53;;;;;;;1.63;0.80;;;;;;;6.52;77.37;98381.09;5009517;28;20124;-72
2022/02/04 16:41:31;;;;;;;1.60;1.10;;;;;;;6.41;77.59;98352.84;5006699;28;20041;-73
2022/02/04 16:43:57;;;;;;;2.80;1.20;;;;;;;6.64;77.83;98390.34;5006773;28;20597;-72
2022/02/04 16:46:22;;;;;;;1.77;0.95;;;;;;;6.57;77.48;98379.50;5009688;28;20061;-72
2022/02/04 16:48:48;;;;;;;2.60;1.20;;;;;;;6.53;77.89;98374.72;5009647;28;20060;-73
2022/02/04 16:51:13;;;;;;;5.22;1.85;;;;;;;6.33;77.98;98358.31;5016741;28;20033;-71
2022/02/04 16:53:40;;;;;;;3.38;1.40;;;;;;;6.36;78.18;98363.31;5003129;28;20061;-72
2022/02/04 16:56:05;;;;;;;4.55;1.73;;;;;;;6.61;77.99;98392.59;5003824;28;20076;-71
2022/02/04 16:58:31;;;;;;;2.55;0.90;;;;;;;6.41;78.16;98362.75;4999433;28;20522;-71
2022/02/04 17:00:57;;;;;;;1.92;1.30;;;;;;;6.56;78.77;98391.28;5002780;28;20484;-74
2022/02/04 17:03:23;;;;;;;2.22;1.20;;;;;;;6.50;79.18;98380.47;5001755;28;20519;-73
2022/02/04 17:05:52;;;;;;;3.20;1.17;;;;;;;6.62;78.94;98389.69;4999985;28;20066;-74
2022/02/04 17:08:31;;;;;;;;;;;;;;;6.62;78.68;98387.00;4999110;28;20084;-74
2022/02/04 17:10:57;;;;;;;1.55;0.75;;;;;;;6.50;79.14;98385.84;4998863;28;19925;-73
2022/02/04 17:13:23;;;;;;;1.27;0.80;;;;;;;6.25;80.60;98353.06;5000152;28;20077;-74
2022/02/04 17:15:49;;;;;;;1.48;0.95;;;;;;;6.41;82.04;98395.00;5008268;28;20026;-73
2022/02/04 17:18:15;;;;;;;2.40;0.95;;;;;;;6.08;82.25;98347.06;5002295;28;20041;-73
2022/02/04 17:20:41;;;;;;;5.03;1.00;;;;;;;6.31;81.64;98371.97;5009586;28;20029;-74
2022/02/04 17:23:09;;;;;;;1.55;0.70;;;;;;;6.46;80.48;98397.97;5008825;28;20018;-73
2022/02/04 17:25:35;;;;;;;0.93;0.65;;;;;;;6.32;80.31;98378.16;5005140;28;20412;-73
2022/02/04 17:28:02;;;;;;;0.93;0.63;;;;;;;6.45;80.35;98382.88;5007049;28;20025;-73
2022/02/04 17:30:28;;;;;;;3.70;0.80;;;;;;;6.33;79.76;98372.59;5008348;28;20022;-73
2022/02/04 17:32:54;;;;;;;1.40;0.50;;;;;;;6.53;78.81;98396.22;5005546;28;20511;-73
2022/02/04 17:35:22;;;;;;;1.20;0.50;;;;;;;6.43;77.97;98366.09;5008759;28;20441;-73
2022/02/04 17:37:51;;;;;;;0.37;0.30;;;;;;;6.50;78.29;98375.91;5001507;28;20830;-73
2022/02/04 17:40:17;;;;;;;1.88;0.80;;;;;;;6.61;78.70;98409.53;5002475;28;20083;-72
2022/02/04 17:42:43;;;;;;;1.67;0.55;;;;;;;6.49;78.41;98397.59;4999860;28;20026;-70
2022/02/04 17:45:10;;;;;;;2.35;0.45;;;;;;;6.62;78.02;98421.94;5010848;28;20044;-71
2022/02/04 17:47:39;;;;;;;1.65;0.50;;;;;;;6.63;78.09;98412.03;4995516;28;20068;-71
2022/02/04 17:50:12;;;;;;;1.08;0.50;;;;;;;6.62;78.73;98416.56;5006334;28;20033;-70
2022/02/04 17:52:43;;;;;;;0.75;0.50;;;;;;;6.55;78.79;98404.94;5010078;28;20037;-71
2022/02/04 17:55:21;;;;;;;3.15;0.60;;;;;;;6.45;78.26;98399.00;5000938;28;20033;-70
2022/02/04 17:57:54;;;;;;;0.77;0.50;;;;;;;6.58;78.91;98431.44;5001269;28;20610;-70
2022/02/04 18:03:27;;;;;;;1.13;0.60;;;;;;;6.38;79.40;98404.28;4997855;28;20045;-71
2022/02/04 18:06:10;;;;;;;1.20;0.57;;;;;;;6.53;79.35;98413.16;5002402;28;20678;-70
2022/02/04 18:08:36;;;;;;;0.80;0.40;;;;;;;6.52;79.80;98424.09;5009300;28;20037;-70
2022/02/04 18:11:03;;;;;;;1.90;0.60;;;;;;;6.44;79.96;98421.50;5004616;28;20022;-71
2022/02/04 18:13:30;;;;;;;0.68;0.50;;;;;;;6.48;80.60;98420.94;5005679;28;20487;-71